sensor_id;sensor_type;location;lat;lon;timestamp;temperature;humidity
17423;DHT22;8829;47.932;7.810;2022-10-31T00:01:58;13.60;99.90
17423;DHT22;8829;47.932;7.810;2022-10-31T00:04:24;13.70;99.90
17423;DHT22;8829;47.932;7.810;2022-10-31T00:06:52;13.70;99.90
17423;DHT22;8829;47.932;7.810;2022-10-31T00:09:19;13.60;99.90
17423;DHT22;8829;47.932;7.810;2022-10-31T00:11:46;13.50;99.90
17423;DHT22;8829;47.932;7.810;2022-10-31T00:14:12;13.60;99.90
17423;DHT22;8829;47.932;7.810;2022-10-31T00:16:39;13.60;99.90
17423;DHT22;8829;47.932;7.810;2022-10-31T00:19:08;13.60;99.90
17423;DHT22;8829;47.932;7.810;2022-10-31T00:21:35;13.60;99.90
17423;DHT22;8829;47.932;7.810;2022-10-31T00:24:04;13.50;99.90
17423;DHT22;8829;47.932;7.810;2022-10-31T00:26:31;13.50;99.90
17423;DHT22;8829;47.932;7.810;2022-10-31T00:28:58;13.50;99.90
17423;DHT22;8829;47.932;7.810;2022-10-31T00:31:26;13.40;99.90
17423;DHT22;8829;47.932;7.810;2022-10-31T00:33:52;13.50;99.90
17423;DHT22;8829;47.932;7.810;2022-10-31T00:36:19;13.50;99.90
17423;DHT22;8829;47.932;7.810;2022-10-31T00:38:47;13.50;99.90
17423;DHT22;8829;47.932;7.810;2022-10-31T00:41:17;13.50;99.90
17423;DHT22;8829;47.932;7.810;2022-10-31T00:43:44;13.50;99.90
17423;DHT22;8829;47.932;7.810;2022-10-31T00:46:12;13.40;99.90
17423;DHT22;8829;47.932;7.810;2022-10-31T00:48:39;13.50;99.90
17423;DHT22;8829;47.932;7.810;2022-10-31T00:51:05;13.50;99.90
17423;DHT22;8829;47.932;7.810;2022-10-31T00:53:32;13.50;99.90
17423;DHT22;8829;47.932;7.810;2022-10-31T00:55:59;13.50;99.90
17423;DHT22;8829;47.932;7.810;2022-10-31T00:58:27;13.50;99.90
17423;DHT22;8829;47.932;7.810;2022-10-31T01:00:54;13.60;99.90
17423;DHT22;8829;47.932;7.810;2022-10-31T01:03:22;13.50;99.90
17423;DHT22;8829;47.932;7.810;2022-10-31T01:05:56;13.50;99.90
17423;DHT22;8829;47.932;7.810;2022-10-31T01:08:23;13.40;99.90
17423;DHT22;8829;47.932;7.810;2022-10-31T01:10:59;13.50;99.90
17423;DHT22;8829;47.932;7.810;2022-10-31T01:13:27;13.60;99.90
17423;DHT22;8829;47.932;7.810;2022-10-31T01:15:54;13.60;99.90
17423;DHT22;8829;47.932;7.810;2022-10-31T01:18:21;13.50;99.90
17423;DHT22;8829;47.932;7.810;2022-10-31T01:20:57;13.50;99.90
17423;DHT22;8829;47.932;7.810;2022-10-31T01:23:24;13.50;99.90
17423;DHT22;8829;47.932;7.810;2022-10-31T01:26:06;13.60;99.90
17423;DHT22;8829;47.932;7.810;2022-10-31T01:28:35;13.60;99.90
17423;DHT22;8829;47.932;7.810;2022-10-31T01:31:04;13.60;99.90
17423;DHT22;8829;47.932;7.810;2022-10-31T01:33:31;13.60;99.90
17423;DHT22;8829;47.932;7.810;2022-10-31T01:35:57;13.50;99.90
17423;DHT22;8829;47.932;7.810;2022-10-31T01:38:24;13.40;99.90
17423;DHT22;8829;47.932;7.810;2022-10-31T01:40:51;13.40;99.90
17423;DHT22;8829;47.932;7.810;2022-10-31T01:43:18;13.50;99.90
17423;DHT22;8829;47.932;7.810;2022-10-31T01:45:49;13.40;99.90
17423;DHT22;8829;47.932;7.810;2022-10-31T01:48:19;13.40;99.90
17423;DHT22;8829;47.932;7.810;2022-10-31T01:50:47;13.30;99.90
17423;DHT22;8829;47.932;7.810;2022-10-31T01:53:15;13.40;99.90
17423;DHT22;8829;47.932;7.810;2022-10-31T01:55:45;13.20;99.90
17423;DHT22;8829;47.932;7.810;2022-10-31T01:58:14;13.30;99.90
17423;DHT22;8829;47.932;7.810;2022-10-31T02:00:46;13.30;99.90
17423;DHT22;8829;47.932;7.810;2022-10-31T02:03:16;13.30;99.90
17423;DHT22;8829;47.932;7.810;2022-10-31T02:05:43;13.30;99.90
17423;DHT22;8829;47.932;7.810;2022-10-31T02:08:13;13.40;99.90
17423;DHT22;8829;47.932;7.810;2022-10-31T02:10:43;13.30;99.90
17423;DHT22;8829;47.932;7.810;2022-10-31T02:13:10;13.30;99.90
17423;DHT22;8829;47.932;7.810;2022-10-31T02:15:39;13.30;99.90
17423;DHT22;8829;47.932;7.810;2022-10-31T02:18:08;13.30;99.90
17423;DHT22;8829;47.932;7.810;2022-10-31T02:20:42;13.30;99.90
17423;DHT22;8829;47.932;7.810;2022-10-31T02:23:39;13.20;99.90
17423;DHT22;8829;47.932;7.810;2022-10-31T02:38:25;13.10;99.90
17423;DHT22;8829;47.932;7.810;2022-10-31T02:41:00;13.20;99.90
17423;DHT22;8829;47.932;7.810;2022-10-31T02:43:35;13.20;99.90
17423;DHT22;8829;47.932;7.810;2022-10-31T02:46:11;13.20;99.90
17423;DHT22;8829;47.932;7.810;2022-10-31T02:48:43;13.20;99.90
17423;DHT22;8829;47.932;7.810;2022-10-31T02:51:11;13.20;99.90
17423;DHT22;8829;47.932;7.810;2022-10-31T02:53:38;13.30;99.90
17423;DHT22;8829;47.932;7.810;2022-10-31T02:56:11;13.20;99.90
17423;DHT22;8829;47.932;7.810;2022-10-31T02:58:41;13.20;99.90
17423;DHT22;8829;47.932;7.810;2022-10-31T03:01:33;13.10;99.90
17423;DHT22;8829;47.932;7.810;2022-10-31T03:04:47;13.10;99.90
17423;DHT22;8829;47.932;7.810;2022-10-31T03:07:21;13.00;99.90
17423;DHT22;8829;47.932;7.810;2022-10-31T03:09:58;13.00;99.90
17423;DHT22;8829;47.932;7.810;2022-10-31T03:12:29;13.00;99.90
17423;DHT22;8829;47.932;7.810;2022-10-31T03:15:05;13.10;99.90
17423;DHT22;8829;47.932;7.810;2022-10-31T03:17:37;13.10;99.90
17423;DHT22;8829;47.932;7.810;2022-10-31T03:20:08;13.00;99.90
17423;DHT22;8829;47.932;7.810;2022-10-31T03:22:38;12.90;99.90
17423;DHT22;8829;47.932;7.810;2022-10-31T03:25:06;12.90;99.90
17423;DHT22;8829;47.932;7.810;2022-10-31T03:27:35;12.90;99.90
17423;DHT22;8829;47.932;7.810;2022-10-31T03:30:05;12.90;99.90
17423;DHT22;8829;47.932;7.810;2022-10-31T03:32:35;12.90;99.90
17423;DHT22;8829;47.932;7.810;2022-10-31T03:35:05;12.90;99.90
17423;DHT22;8829;47.932;7.810;2022-10-31T03:37:36;12.90;99.90
17423;DHT22;8829;47.932;7.810;2022-10-31T03:40:06;13.00;99.90
17423;DHT22;8829;47.932;7.810;2022-10-31T03:42:36;13.00;99.90
17423;DHT22;8829;47.932;7.810;2022-10-31T03:45:08;13.00;99.90
17423;DHT22;8829;47.932;7.810;2022-10-31T03:47:38;13.00;99.90
17423;DHT22;8829;47.932;7.810;2022-10-31T03:50:09;12.90;99.90
17423;DHT22;8829;47.932;7.810;2022-10-31T03:52:41;12.90;99.90
17423;DHT22;8829;47.932;7.810;2022-10-31T03:55:12;12.80;99.90
17423;DHT22;8829;47.932;7.810;2022-10-31T03:57:49;12.80;99.90
17423;DHT22;8829;47.932;7.810;2022-10-31T04:00:18;12.70;99.90
17423;DHT22;8829;47.932;7.810;2022-10-31T04:02:49;12.70;99.90
17423;DHT22;8829;47.932;7.810;2022-10-31T04:05:20;12.70;99.90
17423;DHT22;8829;47.932;7.810;2022-10-31T04:07:50;12.60;99.90
17423;DHT22;8829;47.932;7.810;2022-10-31T04:10:19;12.60;99.90
17423;DHT22;8829;47.932;7.810;2022-10-31T04:12:51;12.50;99.90
17423;DHT22;8829;47.932;7.810;2022-10-31T04:15:19;12.50;99.90
17423;DHT22;8829;47.932;7.810;2022-10-31T04:17:50;12.50;99.90
17423;DHT22;8829;47.932;7.810;2022-10-31T04:20:29;12.60;99.90
17423;DHT22;8829;47.932;7.810;2022-10-31T04:22:56;12.70;99.90
17423;DHT22;8829;47.932;7.810;2022-10-31T04:25:23;12.70;99.90
17423;DHT22;8829;47.932;7.810;2022-10-31T04:27:49;12.70;99.90
17423;DHT22;8829;47.932;7.810;2022-10-31T04:30:16;12.70;99.90
17423;DHT22;8829;47.932;7.810;2022-10-31T04:32:43;12.70;99.90
17423;DHT22;8829;47.932;7.810;2022-10-31T04:35:11;12.60;99.90
17423;DHT22;8829;47.932;7.810;2022-10-31T04:37:39;12.60;99.90
17423;DHT22;8829;47.932;7.810;2022-10-31T04:40:06;12.50;99.90
17423;DHT22;8829;47.932;7.810;2022-10-31T04:42:33;12.50;99.90
17423;DHT22;8829;47.932;7.810;2022-10-31T04:45:00;12.40;99.90
17423;DHT22;8829;47.932;7.810;2022-10-31T04:47:27;12.30;99.90
17423;DHT22;8829;47.932;7.810;2022-10-31T04:49:53;12.40;99.90
17423;DHT22;8829;47.932;7.810;2022-10-31T04:52:20;12.20;99.90
17423;DHT22;8829;47.932;7.810;2022-10-31T04:54:48;12.30;99.90
17423;DHT22;8829;47.932;7.810;2022-10-31T04:57:15;12.30;99.90
17423;DHT22;8829;47.932;7.810;2022-10-31T04:59:42;12.30;99.90
17423;DHT22;8829;47.932;7.810;2022-10-31T05:02:09;12.30;99.90
17423;DHT22;8829;47.932;7.810;2022-10-31T05:04:35;12.30;99.90
17423;DHT22;8829;47.932;7.810;2022-10-31T05:07:02;12.30;99.90
17423;DHT22;8829;47.932;7.810;2022-10-31T05:09:29;12.10;99.90
17423;DHT22;8829;47.932;7.810;2022-10-31T05:11:57;12.00;99.90
17423;DHT22;8829;47.932;7.810;2022-10-31T05:14:24;11.90;99.90
17423;DHT22;8829;47.932;7.810;2022-10-31T05:16:50;11.80;99.90
17423;DHT22;8829;47.932;7.810;2022-10-31T05:19:17;11.80;99.90
17423;DHT22;8829;47.932;7.810;2022-10-31T05:21:44;11.90;99.90
17423;DHT22;8829;47.932;7.810;2022-10-31T05:24:10;11.80;99.90
17423;DHT22;8829;47.932;7.810;2022-10-31T05:26:37;11.80;99.90
17423;DHT22;8829;47.932;7.810;2022-10-31T05:29:05;11.70;99.90
17423;DHT22;8829;47.932;7.810;2022-10-31T05:31:32;11.80;99.90
17423;DHT22;8829;47.932;7.810;2022-10-31T05:33:59;11.90;99.90
17423;DHT22;8829;47.932;7.810;2022-10-31T05:36:25;11.90;99.90
17423;DHT22;8829;47.932;7.810;2022-10-31T05:38:52;11.90;99.90
17423;DHT22;8829;47.932;7.810;2022-10-31T05:41:20;11.70;99.90
17423;DHT22;8829;47.932;7.810;2022-10-31T05:43:48;11.60;99.90
17423;DHT22;8829;47.932;7.810;2022-10-31T05:46:16;11.60;99.90
17423;DHT22;8829;47.932;7.810;2022-10-31T05:48:43;11.70;99.90
17423;DHT22;8829;47.932;7.810;2022-10-31T05:51:10;11.60;99.90
17423;DHT22;8829;47.932;7.810;2022-10-31T05:53:40;11.50;99.90
17423;DHT22;8829;47.932;7.810;2022-10-31T05:56:07;11.50;99.90
17423;DHT22;8829;47.932;7.810;2022-10-31T05:58:34;11.50;99.90
17423;DHT22;8829;47.932;7.810;2022-10-31T06:01:00;11.50;99.90
17423;DHT22;8829;47.932;7.810;2022-10-31T06:03:28;11.50;99.90
17423;DHT22;8829;47.932;7.810;2022-10-31T06:05:55;11.50;99.90
17423;DHT22;8829;47.932;7.810;2022-10-31T06:08:22;11.50;99.90
17423;DHT22;8829;47.932;7.810;2022-10-31T06:10:48;11.60;99.90
17423;DHT22;8829;47.932;7.810;2022-10-31T06:13:15;11.70;99.90
17423;DHT22;8829;47.932;7.810;2022-10-31T06:15:42;11.60;99.90
17423;DHT22;8829;47.932;7.810;2022-10-31T06:18:09;11.70;99.90
17423;DHT22;8829;47.932;7.810;2022-10-31T06:20:37;11.80;99.90
17423;DHT22;8829;47.932;7.810;2022-10-31T06:23:04;11.80;99.90
17423;DHT22;8829;47.932;7.810;2022-10-31T06:25:32;11.90;99.90
17423;DHT22;8829;47.932;7.810;2022-10-31T06:27:59;11.90;99.90
17423;DHT22;8829;47.932;7.810;2022-10-31T06:30:26;12.00;99.90
17423;DHT22;8829;47.932;7.810;2022-10-31T06:32:52;12.10;99.90
17423;DHT22;8829;47.932;7.810;2022-10-31T06:35:19;12.10;99.90
17423;DHT22;8829;47.932;7.810;2022-10-31T06:37:52;12.10;99.90
17423;DHT22;8829;47.932;7.810;2022-10-31T06:40:19;12.10;99.90
17423;DHT22;8829;47.932;7.810;2022-10-31T06:42:45;12.20;99.90
17423;DHT22;8829;47.932;7.810;2022-10-31T06:45:12;12.20;99.90
17423;DHT22;8829;47.932;7.810;2022-10-31T06:47:39;12.20;99.90
17423;DHT22;8829;47.932;7.810;2022-10-31T06:50:06;12.20;99.90
17423;DHT22;8829;47.932;7.810;2022-10-31T06:52:33;12.20;99.90
17423;DHT22;8829;47.932;7.810;2022-10-31T06:55:01;12.30;99.90
17423;DHT22;8829;47.932;7.810;2022-10-31T06:57:28;12.30;99.90
17423;DHT22;8829;47.932;7.810;2022-10-31T06:59:55;12.40;99.90
17423;DHT22;8829;47.932;7.810;2022-10-31T07:02:22;12.50;99.90
17423;DHT22;8829;47.932;7.810;2022-10-31T07:04:50;12.50;99.90
17423;DHT22;8829;47.932;7.810;2022-10-31T07:07:17;12.50;99.90
17423;DHT22;8829;47.932;7.810;2022-10-31T07:09:46;12.40;99.90
17423;DHT22;8829;47.932;7.810;2022-10-31T07:12:15;12.30;99.90
17423;DHT22;8829;47.932;7.810;2022-10-31T07:14:42;12.40;99.90
17423;DHT22;8829;47.932;7.810;2022-10-31T07:17:09;12.50;99.90
17423;DHT22;8829;47.932;7.810;2022-10-31T07:19:35;12.60;99.90
17423;DHT22;8829;47.932;7.810;2022-10-31T07:22:02;12.80;99.90
17423;DHT22;8829;47.932;7.810;2022-10-31T07:24:29;12.90;99.90
17423;DHT22;8829;47.932;7.810;2022-10-31T07:26:56;13.00;99.90
17423;DHT22;8829;47.932;7.810;2022-10-31T07:29:24;13.20;99.90
17423;DHT22;8829;47.932;7.810;2022-10-31T07:31:51;13.40;99.90
17423;DHT22;8829;47.932;7.810;2022-10-31T07:34:17;13.50;99.90
17423;DHT22;8829;47.932;7.810;2022-10-31T07:36:44;13.60;99.90
17423;DHT22;8829;47.932;7.810;2022-10-31T07:39:11;13.80;99.90
17423;DHT22;8829;47.932;7.810;2022-10-31T07:41:37;13.90;99.90
17423;DHT22;8829;47.932;7.810;2022-10-31T07:44:04;14.20;99.90
17423;DHT22;8829;47.932;7.810;2022-10-31T07:46:32;14.50;99.90
17423;DHT22;8829;47.932;7.810;2022-10-31T07:48:59;14.50;99.90
17423;DHT22;8829;47.932;7.810;2022-10-31T07:51:26;14.40;99.90
17423;DHT22;8829;47.932;7.810;2022-10-31T07:53:53;14.40;99.90
17423;DHT22;8829;47.932;7.810;2022-10-31T07:56:19;14.40;99.90
17423;DHT22;8829;47.932;7.810;2022-10-31T07:58:46;14.50;99.90
17423;DHT22;8829;47.932;7.810;2022-10-31T08:01:13;14.60;99.90
17423;DHT22;8829;47.932;7.810;2022-10-31T08:03:41;14.80;99.90
17423;DHT22;8829;47.932;7.810;2022-10-31T08:06:07;15.10;99.90
17423;DHT22;8829;47.932;7.810;2022-10-31T08:08:34;15.20;99.90
17423;DHT22;8829;47.932;7.810;2022-10-31T08:11:01;15.40;99.90
17423;DHT22;8829;47.932;7.810;2022-10-31T08:13:28;15.50;99.90
17423;DHT22;8829;47.932;7.810;2022-10-31T08:15:57;15.60;99.90
17423;DHT22;8829;47.932;7.810;2022-10-31T08:18:29;15.50;99.90
17423;DHT22;8829;47.932;7.810;2022-10-31T08:20:57;15.70;99.90
17423;DHT22;8829;47.932;7.810;2022-10-31T08:23:24;15.80;99.90
17423;DHT22;8829;47.932;7.810;2022-10-31T08:25:51;15.90;99.90
17423;DHT22;8829;47.932;7.810;2022-10-31T08:28:17;16.00;99.90
17423;DHT22;8829;47.932;7.810;2022-10-31T08:30:44;16.10;99.90
17423;DHT22;8829;47.932;7.810;2022-10-31T08:33:15;16.10;99.90
17423;DHT22;8829;47.932;7.810;2022-10-31T08:35:42;16.20;99.90
17423;DHT22;8829;47.932;7.810;2022-10-31T08:38:12;16.30;99.90
17423;DHT22;8829;47.932;7.810;2022-10-31T08:40:39;16.30;99.90
17423;DHT22;8829;47.932;7.810;2022-10-31T08:43:08;16.00;99.90
17423;DHT22;8829;47.932;7.810;2022-10-31T08:45:36;15.70;99.90
17423;DHT22;8829;47.932;7.810;2022-10-31T08:48:05;15.70;99.90
17423;DHT22;8829;47.932;7.810;2022-10-31T08:50:34;15.70;99.90
17423;DHT22;8829;47.932;7.810;2022-10-31T08:53:01;15.70;99.90
17423;DHT22;8829;47.932;7.810;2022-10-31T08:55:30;15.90;99.90
17423;DHT22;8829;47.932;7.810;2022-10-31T08:57:57;15.80;99.90
17423;DHT22;8829;47.932;7.810;2022-10-31T09:00:24;16.00;99.90
17423;DHT22;8829;47.932;7.810;2022-10-31T09:02:57;16.20;99.90
17423;DHT22;8829;47.932;7.810;2022-10-31T09:05:25;16.50;99.90
17423;DHT22;8829;47.932;7.810;2022-10-31T09:07:55;16.60;99.90
17423;DHT22;8829;47.932;7.810;2022-10-31T09:10:23;16.40;99.90
17423;DHT22;8829;47.932;7.810;2022-10-31T09:12:55;16.00;99.90
17423;DHT22;8829;47.932;7.810;2022-10-31T09:15:22;16.20;99.90
17423;DHT22;8829;47.932;7.810;2022-10-31T09:17:49;16.50;99.90
17423;DHT22;8829;47.932;7.810;2022-10-31T09:20:16;16.50;99.90
17423;DHT22;8829;47.932;7.810;2022-10-31T09:22:43;16.60;99.90
17423;DHT22;8829;47.932;7.810;2022-10-31T09:25:11;16.50;99.90
17423;DHT22;8829;47.932;7.810;2022-10-31T09:27:37;16.20;99.90
17423;DHT22;8829;47.932;7.810;2022-10-31T09:30:07;16.40;99.90
17423;DHT22;8829;47.932;7.810;2022-10-31T09:32:33;16.70;99.90
17423;DHT22;8829;47.932;7.810;2022-10-31T09:35:01;16.90;99.90
17423;DHT22;8829;47.932;7.810;2022-10-31T09:37:28;17.00;99.90
17423;DHT22;8829;47.932;7.810;2022-10-31T09:39:55;17.10;99.90
17423;DHT22;8829;47.932;7.810;2022-10-31T09:42:46;17.20;99.90
17423;DHT22;8829;47.932;7.810;2022-10-31T09:45:26;17.00;99.90
17423;DHT22;8829;47.932;7.810;2022-10-31T09:48:06;17.20;99.90
17423;DHT22;8829;47.932;7.810;2022-10-31T09:50:41;17.40;99.90
17423;DHT22;8829;47.932;7.810;2022-10-31T09:53:11;17.30;99.90
17423;DHT22;8829;47.932;7.810;2022-10-31T09:55:44;17.30;99.90
17423;DHT22;8829;47.932;7.810;2022-10-31T09:58:16;17.40;99.90
17423;DHT22;8829;47.932;7.810;2022-10-31T10:00:47;17.40;99.90
17423;DHT22;8829;47.932;7.810;2022-10-31T10:03:21;17.60;99.90
17423;DHT22;8829;47.932;7.810;2022-10-31T10:05:54;17.80;99.90
17423;DHT22;8829;47.932;7.810;2022-10-31T10:08:26;17.80;99.90
17423;DHT22;8829;47.932;7.810;2022-10-31T10:11:00;17.90;99.90
17423;DHT22;8829;47.932;7.810;2022-10-31T10:13:46;17.90;99.90
17423;DHT22;8829;47.932;7.810;2022-10-31T10:16:36;17.90;99.90
17423;DHT22;8829;47.932;7.810;2022-10-31T10:19:16;18.00;99.90
17423;DHT22;8829;47.932;7.810;2022-10-31T10:21:49;18.00;99.90
17423;DHT22;8829;47.932;7.810;2022-10-31T10:24:30;18.00;99.90
17423;DHT22;8829;47.932;7.810;2022-10-31T10:27:05;17.70;99.90
17423;DHT22;8829;47.932;7.810;2022-10-31T10:29:40;17.50;99.90
17423;DHT22;8829;47.932;7.810;2022-10-31T10:32:19;17.60;99.90
17423;DHT22;8829;47.932;7.810;2022-10-31T10:34:49;17.80;99.90
17423;DHT22;8829;47.932;7.810;2022-10-31T10:37:23;17.80;99.90
17423;DHT22;8829;47.932;7.810;2022-10-31T10:39:54;17.60;99.90
17423;DHT22;8829;47.932;7.810;2022-10-31T10:42:23;17.50;99.90
17423;DHT22;8829;47.932;7.810;2022-10-31T10:45:23;17.40;99.90
17423;DHT22;8829;47.932;7.810;2022-10-31T10:48:15;17.50;99.90
17423;DHT22;8829;47.932;7.810;2022-10-31T10:50:47;17.40;99.90
17423;DHT22;8829;47.932;7.810;2022-10-31T10:53:25;17.40;99.90
17423;DHT22;8829;47.932;7.810;2022-10-31T10:56:10;17.20;99.90
17423;DHT22;8829;47.932;7.810;2022-10-31T10:58:38;17.00;99.90
17423;DHT22;8829;47.932;7.810;2022-10-31T11:01:11;16.90;99.90
17423;DHT22;8829;47.932;7.810;2022-10-31T11:03:40;17.00;99.90
17423;DHT22;8829;47.932;7.810;2022-10-31T11:06:17;17.10;99.90
17423;DHT22;8829;47.932;7.810;2022-10-31T11:08:47;17.30;99.90
17423;DHT22;8829;47.932;7.810;2022-10-31T11:11:24;17.30;99.90
17423;DHT22;8829;47.932;7.810;2022-10-31T11:13:59;17.30;99.90
17423;DHT22;8829;47.932;7.810;2022-10-31T11:16:32;17.50;99.90
17423;DHT22;8829;47.932;7.810;2022-10-31T11:19:09;17.60;99.90
17423;DHT22;8829;47.932;7.810;2022-10-31T11:21:41;17.60;99.90
17423;DHT22;8829;47.932;7.810;2022-10-31T11:24:14;17.70;99.90
17423;DHT22;8829;47.932;7.810;2022-10-31T11:26:44;17.30;99.90
17423;DHT22;8829;47.932;7.810;2022-10-31T11:29:15;16.90;99.90
17423;DHT22;8829;47.932;7.810;2022-10-31T11:31:44;16.80;99.90
17423;DHT22;8829;47.932;7.810;2022-10-31T11:34:18;16.80;99.90
17423;DHT22;8829;47.932;7.810;2022-10-31T11:36:48;17.00;99.90
17423;DHT22;8829;47.932;7.810;2022-10-31T11:39:18;17.10;99.90
17423;DHT22;8829;47.932;7.810;2022-10-31T11:41:46;17.10;99.90
17423;DHT22;8829;47.932;7.810;2022-10-31T11:44:16;17.10;99.90
17423;DHT22;8829;47.932;7.810;2022-10-31T11:46:45;17.40;99.90
17423;DHT22;8829;47.932;7.810;2022-10-31T11:49:17;17.70;99.90
17423;DHT22;8829;47.932;7.810;2022-10-31T11:51:48;17.90;99.90
17423;DHT22;8829;47.932;7.810;2022-10-31T11:54:22;18.10;99.90
17423;DHT22;8829;47.932;7.810;2022-10-31T11:56:50;18.20;99.90
17423;DHT22;8829;47.932;7.810;2022-10-31T11:59:22;18.20;99.90
17423;DHT22;8829;47.932;7.810;2022-10-31T12:01:51;18.10;99.90
17423;DHT22;8829;47.932;7.810;2022-10-31T12:04:27;18.20;99.90
17423;DHT22;8829;47.932;7.810;2022-10-31T12:06:57;18.40;99.90
17423;DHT22;8829;47.932;7.810;2022-10-31T12:09:26;18.50;99.90
17423;DHT22;8829;47.932;7.810;2022-10-31T12:12:13;18.50;99.90
17423;DHT22;8829;47.932;7.810;2022-10-31T12:14:51;18.50;99.90
17423;DHT22;8829;47.932;7.810;2022-10-31T12:17:23;18.30;99.90
17423;DHT22;8829;47.932;7.810;2022-10-31T12:20:02;18.20;99.90
17423;DHT22;8829;47.932;7.810;2022-10-31T12:22:38;18.20;99.90
17423;DHT22;8829;47.932;7.810;2022-10-31T12:25:17;18.20;99.90
17423;DHT22;8829;47.932;7.810;2022-10-31T12:27:59;18.20;99.90
17423;DHT22;8829;47.932;7.810;2022-10-31T12:30:30;18.30;99.90
17423;DHT22;8829;47.932;7.810;2022-10-31T12:33:20;18.30;99.90
17423;DHT22;8829;47.932;7.810;2022-10-31T12:35:57;18.40;99.90
17423;DHT22;8829;47.932;7.810;2022-10-31T12:38:46;18.30;99.90
17423;DHT22;8829;47.932;7.810;2022-10-31T12:41:24;18.30;99.90
17423;DHT22;8829;47.932;7.810;2022-10-31T12:43:57;18.30;99.90
17423;DHT22;8829;47.932;7.810;2022-10-31T12:46:50;18.30;99.90
17423;DHT22;8829;47.932;7.810;2022-10-31T12:49:32;18.40;99.90
17423;DHT22;8829;47.932;7.810;2022-10-31T12:52:19;18.40;99.90
17423;DHT22;8829;47.932;7.810;2022-10-31T12:55:04;18.40;99.90
17423;DHT22;8829;47.932;7.810;2022-10-31T12:57:37;18.40;99.90
17423;DHT22;8829;47.932;7.810;2022-10-31T13:00:11;18.30;99.90
17423;DHT22;8829;47.932;7.810;2022-10-31T13:02:43;18.30;99.90
17423;DHT22;8829;47.932;7.810;2022-10-31T13:05:14;18.20;99.90
17423;DHT22;8829;47.932;7.810;2022-10-31T13:07:48;18.20;99.90
17423;DHT22;8829;47.932;7.810;2022-10-31T13:10:19;18.20;99.90
17423;DHT22;8829;47.932;7.810;2022-10-31T13:12:53;18.00;99.90
17423;DHT22;8829;47.932;7.810;2022-10-31T13:15:23;17.90;99.90
17423;DHT22;8829;47.932;7.810;2022-10-31T13:17:53;17.80;99.90
17423;DHT22;8829;47.932;7.810;2022-10-31T13:20:23;17.80;99.90
17423;DHT22;8829;47.932;7.810;2022-10-31T13:22:56;18.00;99.90
17423;DHT22;8829;47.932;7.810;2022-10-31T13:25:25;18.10;99.90
17423;DHT22;8829;47.932;7.810;2022-10-31T13:27:58;18.10;99.90
17423;DHT22;8829;47.932;7.810;2022-10-31T13:30:27;18.30;99.90
17423;DHT22;8829;47.932;7.810;2022-10-31T13:32:59;18.50;99.90
17423;DHT22;8829;47.932;7.810;2022-10-31T13:35:32;18.60;99.90
17423;DHT22;8829;47.932;7.810;2022-10-31T13:38:11;18.50;99.90
17423;DHT22;8829;47.932;7.810;2022-10-31T13:40:45;18.70;99.90
17423;DHT22;8829;47.932;7.810;2022-10-31T13:43:22;18.90;99.90
17423;DHT22;8829;47.932;7.810;2022-10-31T13:45:52;18.90;99.90
17423;DHT22;8829;47.932;7.810;2022-10-31T13:48:34;18.80;99.90
17423;DHT22;8829;47.932;7.810;2022-10-31T13:51:03;18.80;99.90
17423;DHT22;8829;47.932;7.810;2022-10-31T13:56:22;18.60;99.90
17423;DHT22;8829;47.932;7.810;2022-10-31T13:59:12;18.40;99.90
17423;DHT22;8829;47.932;7.810;2022-10-31T14:01:47;18.00;99.90
17423;DHT22;8829;47.932;7.810;2022-10-31T14:04:16;17.90;99.90
17423;DHT22;8829;47.932;7.810;2022-10-31T14:06:51;17.80;99.90
17423;DHT22;8829;47.932;7.810;2022-10-31T14:09:23;17.70;99.90
17423;DHT22;8829;47.932;7.810;2022-10-31T14:11:51;17.60;99.90
17423;DHT22;8829;47.932;7.810;2022-10-31T14:14:19;17.50;99.90
17423;DHT22;8829;47.932;7.810;2022-10-31T14:16:54;17.50;99.90
17423;DHT22;8829;47.932;7.810;2022-10-31T14:19:22;17.40;99.90
17423;DHT22;8829;47.932;7.810;2022-10-31T14:21:50;17.30;99.90
17423;DHT22;8829;47.932;7.810;2022-10-31T14:24:33;17.30;99.90
17423;DHT22;8829;47.932;7.810;2022-10-31T14:27:01;17.40;99.90
17423;DHT22;8829;47.932;7.810;2022-10-31T14:29:29;17.60;99.90
17423;DHT22;8829;47.932;7.810;2022-10-31T14:32:04;17.70;99.90
17423;DHT22;8829;47.932;7.810;2022-10-31T14:34:38;17.70;99.90
17423;DHT22;8829;47.932;7.810;2022-10-31T14:37:51;17.80;99.90
17423;DHT22;8829;47.932;7.810;2022-10-31T14:40:27;17.80;99.90
17423;DHT22;8829;47.932;7.810;2022-10-31T14:43:20;17.90;99.90
17423;DHT22;8829;47.932;7.810;2022-10-31T14:45:58;17.90;99.90
17423;DHT22;8829;47.932;7.810;2022-10-31T14:48:51;17.90;99.90
17423;DHT22;8829;47.932;7.810;2022-10-31T14:51:26;18.10;99.90
17423;DHT22;8829;47.932;7.810;2022-10-31T14:53:56;18.20;99.90
17423;DHT22;8829;47.932;7.810;2022-10-31T14:56:27;18.30;99.90
17423;DHT22;8829;47.932;7.810;2022-10-31T14:58:57;18.30;99.90
17423;DHT22;8829;47.932;7.810;2022-10-31T15:01:26;18.30;99.90
17423;DHT22;8829;47.932;7.810;2022-10-31T15:03:58;18.20;99.90
17423;DHT22;8829;47.932;7.810;2022-10-31T15:06:31;18.00;99.90
17423;DHT22;8829;47.932;7.810;2022-10-31T15:08:58;18.00;99.90
17423;DHT22;8829;47.932;7.810;2022-10-31T15:11:27;18.00;99.90
17423;DHT22;8829;47.932;7.810;2022-10-31T15:13:55;18.00;99.90
17423;DHT22;8829;47.932;7.810;2022-10-31T15:16:25;18.00;99.90
17423;DHT22;8829;47.932;7.810;2022-10-31T15:18:55;18.00;99.90
17423;DHT22;8829;47.932;7.810;2022-10-31T15:21:24;18.10;99.90
17423;DHT22;8829;47.932;7.810;2022-10-31T15:23:55;17.90;99.90
17423;DHT22;8829;47.932;7.810;2022-10-31T15:26:24;17.60;99.90
17423;DHT22;8829;47.932;7.810;2022-10-31T15:29:02;17.20;99.90
17423;DHT22;8829;47.932;7.810;2022-10-31T15:31:29;16.90;99.90
17423;DHT22;8829;47.932;7.810;2022-10-31T15:34:00;16.50;99.90
17423;DHT22;8829;47.932;7.810;2022-10-31T15:36:28;16.20;99.90
17423;DHT22;8829;47.932;7.810;2022-10-31T15:38:56;16.20;99.90
17423;DHT22;8829;47.932;7.810;2022-10-31T15:41:28;16.20;99.90
17423;DHT22;8829;47.932;7.810;2022-10-31T15:44:01;16.10;99.90
17423;DHT22;8829;47.932;7.810;2022-10-31T15:46:29;16.00;99.90
17423;DHT22;8829;47.932;7.810;2022-10-31T15:48:56;15.80;99.90
17423;DHT22;8829;47.932;7.810;2022-10-31T15:51:30;15.70;99.90
17423;DHT22;8829;47.932;7.810;2022-10-31T15:53:58;15.80;99.90
17423;DHT22;8829;47.932;7.810;2022-10-31T15:56:28;15.70;99.90
17423;DHT22;8829;47.932;7.810;2022-10-31T15:58:57;15.60;99.90
17423;DHT22;8829;47.932;7.810;2022-10-31T16:01:27;15.50;99.90
17423;DHT22;8829;47.932;7.810;2022-10-31T16:04:04;15.40;99.90
17423;DHT22;8829;47.932;7.810;2022-10-31T16:06:32;15.20;99.90
17423;DHT22;8829;47.932;7.810;2022-10-31T16:08:59;15.00;99.90
17423;DHT22;8829;47.932;7.810;2022-10-31T16:11:32;15.10;99.90
17423;DHT22;8829;47.932;7.810;2022-10-31T16:14:02;15.00;99.90
17423;DHT22;8829;47.932;7.810;2022-10-31T16:16:32;14.80;99.90
17423;DHT22;8829;47.932;7.810;2022-10-31T16:19:01;14.70;99.90
17423;DHT22;8829;47.932;7.810;2022-10-31T16:21:30;14.60;99.90
17423;DHT22;8829;47.932;7.810;2022-10-31T16:24:00;14.60;99.90